Terry Gifford — WDC2142 — position and weather

sailwx.info

Track history (hours):
 
Tides and Currents Weather Stations Pressure Air Temp Water Temp Dewpoint Dewpoint Depression Visibility Wind Speed Wind Dir Waves Ship Positions

Terry Gifford

Owner: Ingram Barge Company LLC, NASHVILLE, TN. More information available from US FCC via Universal Licensing System and Coast Guard Vessel Documentation Center.

Last reported at 2018-May-15 14:19 UTC. Time now 2018-Jun-23 19:50 UTC.
Position N 38°36' W 090°11'.
Warning: this ship's position is 39 days out of date.

Length 19 m; draft 3 m.

Type: Towing. MMSI: 366988580.

Date/timePositionNaut miles runAvg speedWind from/ knotsBaromVisibWave heightAir tempDewpointWater temp
2018-May-15 14:19N 38°36' W 090°11'4 4.9
2018-May-15 13:34N 38°33' W 090°15'0 4.2
2018-May-15 13:27N 38°33' W 090°15'0 0.9
2018-May-15 13:00N 38°32' W 090°15'1 1.1
2018-May-15 12:12N 38°33' W 090°15'1 3.8
2018-May-15 11:59N 38°32' W 090°15'0 0.3
2018-May-15 11:30N 38°33' W 090°15'0 0.1
2018-May-15 10:24N 38°32' W 090°15'1 2.2
2018-May-15 09:58N 38°33' W 090°15'0 0.1
2018-May-15 09:26N 38°33' W 090°14'1 2.3
2018-May-15 09:00N 38°32' W 090°15'1 1.9
2018-May-15 08:30N 38°32' W 090°15'0 0.0
2018-May-15 08:00N 38°32' W 090°15'2 0.4
2018-May-15 03:45N 38°33' W 090°15'0 0.7
2018-May-15 03:24N 38°33' W 090°15'0 0.2
2018-May-15 03:00N 38°33' W 090°15'0 0.0
2018-May-15 02:30N 38°33' W 090°15'0 0.1
2018-May-15 00:57N 38°33' W 090°15'1 1.2
2018-May-15 00:01N 38°32' W 090°15'0 0.0
2018-May-15 00:00N 38°32' W 090°15'1 0.5
2018-May-14 22:26N 38°32' W 090°15'1 0.6
2018-May-14 21:38N 38°33' W 090°15'0 0.0
2018-May-14 21:28N 38°33' W 090°15'0 0.1
2018-May-14 20:59N 38°33' W 090°15'0 0.5
2018-May-14 20:26N 38°33' W 090°15'0 0.7
2018-May-14 20:00N 38°33' W 090°15'0 0.1
2018-May-14 19:30N 38°33' W 090°15'0 0.4
2018-May-14 18:39N 38°33' W 090°15'0 1.5
2018-May-14 18:19N 38°33' W 090°14'2 6.1
2018-May-14 17:56N 38°35' W 090°12'410.6
2018-May-14 17:30N 38°40' W 090°11'1 1.4
2018-May-14 17:00N 38°39' W 090°11'2 3.8
2018-May-14 16:30N 38°37' W 090°11'5 3.5
2018-May-14 15:00N 38°33' W 090°15'1 0.4
2018-May-14 13:25N 38°33' W 090°14'1 1.5
2018-May-14 12:59N 38°33' W 090°15'0 0.2
2018-May-14 12:30N 38°33' W 090°15'0 0.5
2018-May-14 11:59N 38°33' W 090°15'0 0.2
2018-May-14 11:29N 38°32' W 090°15'0 0.0
2018-May-14 10:30N 38°32' W 090°15'4 1.8
2018-May-14 08:17N 38°36' W 090°12'1 3.6
2018-May-14 08:00N 38°36' W 090°11'1 2.0
2018-May-14 07:30N 38°37' W 090°11'0 0.7
2018-May-14 07:00N 38°37' W 090°11'5 4.3
2018-May-14 05:44N 38°33' W 090°15'0 0.8
2018-May-14 05:26N 38°32' W 090°15'0 0.4
2018-May-14 05:00N 38°33' W 090°15'0 0.0
2018-May-14 04:30N 38°33' W 090°15'2 0.1
2018-May-13 12:07N 38°31' W 090°16'0 0.1
2018-May-13 12:00N 38°31' W 090°16'1 1.4
2018-May-13 11:05N 38°32' W 090°15'0 0.0
2018-May-13 11:00N 38°32' W 090°15'0 0.0
2018-May-13 10:30N 38°32' W 090°15'0 0.7
2018-May-13 09:50N 38°32' W 090°15'1 1.7
2018-May-13 09:28N 38°33' W 090°15'0 0.1
2018-May-13 08:47N 38°32' W 090°15'0 0.0
2018-May-13 08:30N 38°32' W 090°15'1 1.4
2018-May-13 07:40N 38°31' W 090°16'1 0.1
2018-May-12 23:38N 38°32' W 090°15'0 0.1
2018-May-12 19:36N 38°33' W 090°15'0 0.1
2018-May-12 19:14N 38°33' W 090°15'4 8.7
2018-May-12 18:47N 38°36' W 090°12'1 2.8
2018-May-12 18:28N 38°36' W 090°11'0 0.1
2018-May-12 18:00N 38°36' W 090°11'3 3.8
2018-May-12 17:07N 38°34' W 090°14'2 1.5
2018-May-12 15:40N 38°35' W 090°12'1 7.5
2018-May-12 15:30N 38°36' W 090°11'1 1.0
2018-May-12 14:59N 38°36' W 090°12'4 3.9
2018-May-12 14:01N 38°33' W 090°15'0 2.3
2018-May-12 13:56N 38°33' W 090°15'0 0.2
2018-May-12 11:15N 38°32' W 090°15'0 0.1
2018-May-12 10:59N 38°32' W 090°15'0 0.1
2018-May-12 10:30N 38°32' W 090°15'1 1.0
2018-May-12 09:47N 38°32' W 090°15'0 0.5
2018-May-12 09:24N 38°32' W 090°15'0 0.0
2018-May-12 06:13N 38°32' W 090°15'0 0.0
2018-May-12 05:54N 38°32' W 090°15'0 0.7
2018-May-12 05:23N 38°31' W 090°16'0 0.0
2018-May-12 04:56N 38°31' W 090°16'1 1.3
2018-May-12 04:30N 38°32' W 090°15'0 0.0
2018-May-12 03:55N 38°32' W 090°15'0 0.0
2018-May-12 03:17N 38°32' W 090°15'0 0.2
2018-May-12 01:44N 38°32' W 090°15'2 0.3
2018-May-11 19:07N 38°33' W 090°14'4 8.4
2018-May-11 18:39N 38°36' W 090°11'0 0.0
2018-May-11 15:10N 38°36' W 090°11'4 2.8
2018-May-11 13:34N 38°33' W 090°15'0 0.1
2018-May-11 13:30N 38°33' W 090°15'0 0.1
2018-May-11 12:39N 38°33' W 090°15'0 0.2
2018-May-11 12:23N 38°33' W 090°15'0 0.4
2018-May-11 12:00N 38°33' W 090°15'0 0.6
2018-May-11 11:29N 38°32' W 090°15'0 0.0
2018-May-11 10:59N 38°32' W 090°15'0 0.0
2018-May-11 10:30N 38°32' W 090°15'1 1.3
2018-May-11 09:36N 38°31' W 090°16'0 0.6
2018-May-11 09:15N 38°31' W 090°16'0 1.8
2018-May-11 09:00N 38°32' W 090°15'0 0.2
2018-May-11 08:28N 38°32' W 090°15'0 0.0
2018-May-11 06:40N 38°32' W 090°15'0 0.0
2018-May-11 04:58N 38°32' W 090°15'1 1.1
2018-May-11 04:23N 38°31' W 090°16'0 0.7
2018-May-11 03:47N 38°32' W 090°16'0 0.0
2018-May-11 03:24N 38°32' W 090°16'0 0.1
2018-May-11 02:58N 38°32' W 090°16'8 1.6
2018-May-10 21:53N 38°39' W 090°11'1 3.4
2018-May-10 21:30N 38°40' W 090°11'1 2.9
2018-May-10 21:00N 38°39' W 090°11'3 4.6
2018-May-10 20:25N 38°36' W 090°11'4 4.4
2018-May-10 19:27N 38°33' W 090°15'4 1.9
2018-May-10 17:15N 38°36' W 090°11'311.1
2018-May-10 17:00N 38°39' W 090°11'1 2.1
2018-May-10 16:28N 38°40' W 090°11'2 4.9
2018-May-10 16:00N 38°38' W 090°11'1 2.8
2018-May-10 15:30N 38°36' W 090°11'5 4.4
2018-May-10 14:25N 38°33' W 090°15'1 1.4
2018-May-10 14:00N 38°32' W 090°15'0 1.0
2018-May-10 13:30N 38°32' W 090°15'0 0.3
2018-May-10 13:00N 38°31' W 090°16'0 0.4
2018-May-10 12:30N 38°31' W 090°16'0 0.2
2018-May-10 12:00N 38°31' W 090°16'1 2.2
2018-May-10 11:29N 38°32' W 090°15'0 0.1
2018-May-10 11:00N 38°32' W 090°15'0 0.0
2018-May-10 10:30N 38°32' W 090°15'1 1.6
2018-May-10 10:00N 38°32' W 090°15'0 0.0
2018-May-10 08:57N 38°32' W 090°15'0 0.1
2018-May-10 08:28N 38°32' W 090°15'0 0.1
2018-May-10 08:00N 38°32' W 090°15'1 1.0
2018-May-10 07:28N 38°31' W 090°16'1 0.8
2018-May-10 06:51N 38°32' W 090°15'0 0.1
2018-May-10 06:11N 38°32' W 090°15'0 0.0
2018-May-10 06:00N 38°32' W 090°15'1 1.0
2018-May-10 05:14N 38°32' W 090°15'0 0.1
2018-May-10 04:45N 38°32' W 090°15'0 0.0
2018-May-09 08:23N 38°32' W 090°15'0 0.0
2018-May-09 07:58N 38°32' W 090°15'0 0.0
2018-May-09 07:30N 38°32' W 090°15'0 0.0
2018-May-09 07:00N 38°32' W 090°15'0 0.0
2018-May-09 06:29N 38°32' W 090°15'0 0.0
2018-May-09 05:28N 38°32' W 090°15'0 0.0
2018-May-09 04:53N 38°32' W 090°15'0 0.0
2018-May-09 04:09N 38°32' W 090°15'0 0.0
2018-May-09 03:59N 38°32' W 090°15'0 0.0
2018-May-09 03:27N 38°32' W 090°15'0 0.0
2018-May-09 02:55N 38°32' W 090°15'0 0.0
2018-May-09 02:21N 38°32' W 090°15'0 0.0
2018-May-09 01:59N 38°32' W 090°15'0 0.0
2018-May-09 00:26N 38°32' W 090°15'0 0.0
2018-May-08 23:56N 38°32' W 090°15'0 0.0
2018-May-08 23:30N 38°32' W 090°15'0 0.0
2018-May-08 22:56N 38°32' W 090°15'5 2.8
2018-May-08 21:17N 38°36' W 090°11'3 9.6
2018-May-08 21:00N 38°39' W 090°11'0 0.2
2018-May-08 20:29N 38°39' W 090°11'3 4.5
2018-May-08 19:55N 38°36' W 090°11'4 5.8
2018-May-08 19:13N 38°33' W 090°14'1 2.9
2018-May-08 18:59N 38°32' W 090°15'1 0.6
2018-May-08 17:29N 38°32' W 090°15'1 0.6
2018-May-08 16:28N 38°32' W 090°15'5 3.0
2018-May-08 14:58N 38°36' W 090°12'3 4.9
2018-May-08 14:21N 38°39' W 090°11'0 0.2
2018-May-08 13:47N 38°39' W 090°11'1 4.5
2018-May-08 13:30N 38°37' W 090°11'3 4.6
2018-May-08 12:57N 38°35' W 090°12'2 4.3
2018-May-08 12:22N 38°33' W 090°14'0 0.6
2018-May-08 11:59N 38°33' W 090°14'1 2.0
2018-May-08 11:30N 38°32' W 090°15'0 0.2
2018-May-08 10:49N 38°32' W 090°15'0 0.0
2018-May-08 10:27N 38°32' W 090°15'1 2.0
2018-May-08 09:56N 38°33' W 090°14'0 0.0
2018-May-08 09:26N 38°33' W 090°14'1 1.3
2018-May-08 09:00N 38°33' W 090°15'0 0.2
2018-May-08 08:28N 38°33' W 090°15'0 0.4
2018-May-08 08:00N 38°33' W 090°15'1 2.3
2018-May-08 07:30N 38°32' W 090°15'0 0.1
2018-May-08 06:53N 38°32' W 090°15'0 0.5
2018-May-08 06:29N 38°32' W 090°16'0 0.1
2018-May-08 05:55N 38°32' W 090°15'1 1.5
2018-May-08 04:56N 38°33' W 090°15'1 1.7
2018-May-08 04:30N 38°32' W 090°15'1 1.9
2018-May-08 03:59N 38°33' W 090°14'0 0.2
2018-May-08 03:30N 38°33' W 090°14'0 0.2
2018-May-08 02:55N 38°33' W 090°14'1 0.5
2018-May-08 01:28N 38°33' W 090°15'0 0.5
2018-May-08 00:37N 38°33' W 090°15'0 0.1
2018-May-07 21:28N 38°33' W 090°15'1 0.3
2018-May-07 19:37N 38°33' W 090°15'0 0.1
2018-May-07 19:10N 38°33' W 090°14'0 0.0
2018-May-07 18:47N 38°33' W 090°14'1 0.3
2018-May-07 16:00N 38°33' W 090°15'0 0.2
2018-May-07 13:40N 38°33' W 090°15'0 0.1
2018-May-07 13:27N 38°33' W 090°15'0 0.7
2018-May-07 12:57N 38°32' W 090°15'0 0.6
2018-May-07 12:28N 38°33' W 090°15'0 0.1
2018-May-07 12:00N 38°33' W 090°15'0 0.3
2018-May-07 10:44N 38°32' W 090°15'0 0.2
2018-May-07 10:28N 38°32' W 090°15'1 1.2
2018-May-07 10:00N 38°32' W 090°15'0 0.0
2018-May-07 09:27N 38°32' W 090°15'0 0.0
2018-May-07 09:00N 38°32' W 090°15'0 0.0
2018-May-07 08:29N 38°32' W 090°15'0 0.0
2018-May-07 07:58N 38°32' W 090°15'0 0.0
2018-May-07 07:29N 38°32' W 090°15'0 0.3
2018-May-07 06:54N 38°32' W 090°16'0 0.3
2018-May-07 06:25N 38°32' W 090°16'0 0.3
2018-May-07 04:50N 38°31' W 090°16'0 0.2
2018-May-07 04:14N 38°31' W 090°16'0 0.0
2018-May-07 03:58N 38°31' W 090°16'0 0.2
2018-May-07 03:29N 38°31' W 090°16'0 0.2
2018-May-07 02:59N 38°31' W 090°16'0 0.1
2018-May-07 02:22N 38°31' W 090°16'0 0.9
2018-May-07 01:53N 38°32' W 090°15'0 0.1
2018-May-07 01:30N 38°32' W 090°15'0 0.0
2018-May-07 00:50N 38°32' W 090°15'1 1.0
2018-May-07 00:13N 38°31' W 090°16'0 0.0
2018-May-06 23:59N 38°31' W 090°16'0 0.0
2018-May-06 14:44N 38°32' W 090°15'1 5.4
2018-May-06 14:31N 38°33' W 090°15'0 0.3
2018-May-06 13:54N 38°33' W 090°15'0 0.2
2018-May-06 13:29N 38°33' W 090°15'0 0.2
2018-May-06 12:44N 38°33' W 090°15'1 2.9
2018-May-06 12:30N 38°32' W 090°15'1 1.2
2018-May-06 12:00N 38°33' W 090°15'0 0.8
2018-May-06 11:30N 38°32' W 090°15'0 0.0
2018-May-06 11:00N 38°32' W 090°15'0 0.0
2018-May-06 10:30N 38°32' W 090°15'0 0.9
2018-May-06 10:00N 38°33' W 090°15'0 0.3
2018-May-06 09:28N 38°33' W 090°15'0 0.3
2018-May-06 09:00N 38°33' W 090°15'1 2.5
2018-May-06 08:30N 38°32' W 090°15'0 0.6
2018-May-06 07:51N 38°31' W 090°16'1 3.1
2018-May-06 07:28N 38°32' W 090°15'0 0.1
2018-May-06 06:29N 38°32' W 090°15'1 2.0
2018-May-06 05:51N 38°31' W 090°16'0 0.0
2018-May-06 05:17N 38°31' W 090°16'0 0.0
2018-May-06 04:59N 38°31' W 090°16'0 0.2
2018-May-06 03:21N 38°31' W 090°16'0 0.5
2018-May-06 02:51N 38°32' W 090°16'1 0.8
2018-May-06 02:07N 38°32' W 090°15'0 0.7
2018-May-06 01:52N 38°32' W 090°15'0 0.2
2018-May-05 23:47N 38°32' W 090°15'0 0.2
2018-May-05 23:30N 38°32' W 090°15'0 0.0
2018-May-05 22:54N 38°32' W 090°15'0 0.2
2018-May-05 20:53N 38°33' W 090°15'0 0.1
2018-May-05 20:28N 38°33' W 090°15'0 0.0
2018-May-05 19:31N 38°33' W 090°15'0 0.0
2018-May-05 19:22N 38°33' W 090°15'0 0.2
2018-May-05 18:45N 38°33' W 090°15'0 0.1
2018-May-05 18:02N 38°33' W 090°15'0 2.2
2018-May-05 17:59N 38°33' W 090°15'0 0.2
2018-May-05 17:29N 38°33' W 090°15'  
Track history (hours):
 
Tides and Currents Weather Stations Pressure Air Temp Water Temp Dewpoint Dewpoint Depression Visibility Wind Speed Wind Dir Waves Ship Positions

Terry Gifford

Owner: Ingram Barge Company LLC, NASHVILLE, TN. More information available from US FCC via Universal Licensing System and Coast Guard Vessel Documentation Center.

Last reported at 2018-May-15 14:19 UTC. Time now 2018-Jun-23 19:50 UTC.
Position N 38°36' W 090°11'.
Warning: this ship's position is 39 days out of date.

Length 19 m; draft 3 m.

Type: Towing. MMSI: 366988580.

Date/timePositionNaut miles runAvg speedWind from/ knotsBaromVisibWave heightAir tempDewpointWater temp
2018-May-15 14:19N 38°36' W 090°11'4 4.9
2018-May-15 13:34N 38°33' W 090°15'0 4.2
2018-May-15 13:27N 38°33' W 090°15'0 0.9
2018-May-15 13:00N 38°32' W 090°15'1 1.1
2018-May-15 12:12N 38°33' W 090°15'1 3.8
2018-May-15 11:59N 38°32' W 090°15'0 0.3
2018-May-15 11:30N 38°33' W 090°15'0 0.1
2018-May-15 10:24N 38°32' W 090°15'1 2.2
2018-May-15 09:58N 38°33' W 090°15'0 0.1
2018-May-15 09:26N 38°33' W 090°14'1 2.3
2018-May-15 09:00N 38°32' W 090°15'1 1.9
2018-May-15 08:30N 38°32' W 090°15'0 0.0
2018-May-15 08:00N 38°32' W 090°15'2 0.4
2018-May-15 03:45N 38°33' W 090°15'0 0.7
2018-May-15 03:24N 38°33' W 090°15'0 0.2
2018-May-15 03:00N 38°33' W 090°15'0 0.0
2018-May-15 02:30N 38°33' W 090°15'0 0.1
2018-May-15 00:57N 38°33' W 090°15'1 1.2
2018-May-15 00:01N 38°32' W 090°15'0 0.0
2018-May-15 00:00N 38°32' W 090°15'1 0.5
2018-May-14 22:26N 38°32' W 090°15'1 0.6
2018-May-14 21:38N 38°33' W 090°15'0 0.0
2018-May-14 21:28N 38°33' W 090°15'0 0.1
2018-May-14 20:59N 38°33' W 090°15'0 0.5
2018-May-14 20:26N 38°33' W 090°15'0 0.7
2018-May-14 20:00N 38°33' W 090°15'0 0.1
2018-May-14 19:30N 38°33' W 090°15'0 0.4
2018-May-14 18:39N 38°33' W 090°15'0 1.5
2018-May-14 18:19N 38°33' W 090°14'2 6.1
2018-May-14 17:56N 38°35' W 090°12'410.6
2018-May-14 17:30N 38°40' W 090°11'1 1.4
2018-May-14 17:00N 38°39' W 090°11'2 3.8
2018-May-14 16:30N 38°37' W 090°11'5 3.5
2018-May-14 15:00N 38°33' W 090°15'1 0.4
2018-May-14 13:25N 38°33' W 090°14'1 1.5
2018-May-14 12:59N 38°33' W 090°15'0 0.2
2018-May-14 12:30N 38°33' W 090°15'0 0.5
2018-May-14 11:59N 38°33' W 090°15'0 0.2
2018-May-14 11:29N 38°32' W 090°15'0 0.0
2018-May-14 10:30N 38°32' W 090°15'4 1.8
2018-May-14 08:17N 38°36' W 090°12'1 3.6
2018-May-14 08:00N 38°36' W 090°11'1 2.0
2018-May-14 07:30N 38°37' W 090°11'0 0.7
2018-May-14 07:00N 38°37' W 090°11'5 4.3
2018-May-14 05:44N 38°33' W 090°15'0 0.8
2018-May-14 05:26N 38°32' W 090°15'0 0.4
2018-May-14 05:00N 38°33' W 090°15'0 0.0
2018-May-14 04:30N 38°33' W 090°15'2 0.1
2018-May-13 12:07N 38°31' W 090°16'0 0.1
2018-May-13 12:00N 38°31' W 090°16'1 1.4
2018-May-13 11:05N 38°32' W 090°15'0 0.0
2018-May-13 11:00N 38°32' W 090°15'0 0.0
2018-May-13 10:30N 38°32' W 090°15'0 0.7
2018-May-13 09:50N 38°32' W 090°15'1 1.7
2018-May-13 09:28N 38°33' W 090°15'0 0.1
2018-May-13 08:47N 38°32' W 090°15'0 0.0
2018-May-13 08:30N 38°32' W 090°15'1 1.4
2018-May-13 07:40N 38°31' W 090°16'1 0.1
2018-May-12 23:38N 38°32' W 090°15'0 0.1
2018-May-12 19:36N 38°33' W 090°15'0 0.1
2018-May-12 19:14N 38°33' W 090°15'4 8.7
2018-May-12 18:47N 38°36' W 090°12'1 2.8
2018-May-12 18:28N 38°36' W 090°11'0 0.1
2018-May-12 18:00N 38°36' W 090°11'3 3.8
2018-May-12 17:07N 38°34' W 090°14'2 1.5
2018-May-12 15:40N 38°35' W 090°12'1 7.5
2018-May-12 15:30N 38°36' W 090°11'1 1.0
2018-May-12 14:59N 38°36' W 090°12'4 3.9
2018-May-12 14:01N 38°33' W 090°15'0 2.3
2018-May-12 13:56N 38°33' W 090°15'0 0.2
2018-May-12 11:15N 38°32' W 090°15'0 0.1
2018-May-12 10:59N 38°32' W 090°15'0 0.1
2018-May-12 10:30N 38°32' W 090°15'1 1.0
2018-May-12 09:47N 38°32' W 090°15'0 0.5
2018-May-12 09:24N 38°32' W 090°15'0 0.0
2018-May-12 06:13N 38°32' W 090°15'0 0.0
2018-May-12 05:54N 38°32' W 090°15'0 0.7
2018-May-12 05:23N 38°31' W 090°16'0 0.0
2018-May-12 04:56N 38°31' W 090°16'1 1.3
2018-May-12 04:30N 38°32' W 090°15'0 0.0
2018-May-12 03:55N 38°32' W 090°15'0 0.0
2018-May-12 03:17N 38°32' W 090°15'0 0.2
2018-May-12 01:44N 38°32' W 090°15'2 0.3
2018-May-11 19:07N 38°33' W 090°14'4 8.4
2018-May-11 18:39N 38°36' W 090°11'0 0.0
2018-May-11 15:10N 38°36' W 090°11'4 2.8
2018-May-11 13:34N 38°33' W 090°15'0 0.1
2018-May-11 13:30N 38°33' W 090°15'0 0.1
2018-May-11 12:39N 38°33' W 090°15'0 0.2
2018-May-11 12:23N 38°33' W 090°15'0 0.4
2018-May-11 12:00N 38°33' W 090°15'0 0.6
2018-May-11 11:29N 38°32' W 090°15'0 0.0
2018-May-11 10:59N 38°32' W 090°15'0 0.0
2018-May-11 10:30N 38°32' W 090°15'1 1.3
2018-May-11 09:36N 38°31' W 090°16'0 0.6
2018-May-11 09:15N 38°31' W 090°16'0 1.8
2018-May-11 09:00N 38°32' W 090°15'0 0.2
2018-May-11 08:28N 38°32' W 090°15'0 0.0
2018-May-11 06:40N 38°32' W 090°15'0 0.0
2018-May-11 04:58N 38°32' W 090°15'1 1.1
2018-May-11 04:23N 38°31' W 090°16'0 0.7
2018-May-11 03:47N 38°32' W 090°16'0 0.0
2018-May-11 03:24N 38°32' W 090°16'0 0.1
2018-May-11 02:58N 38°32' W 090°16'8 1.6
2018-May-10 21:53N 38°39' W 090°11'1 3.4
2018-May-10 21:30N 38°40' W 090°11'1 2.9
2018-May-10 21:00N 38°39' W 090°11'3 4.6
2018-May-10 20:25N 38°36' W 090°11'4 4.4
2018-May-10 19:27N 38°33' W 090°15'4 1.9
2018-May-10 17:15N 38°36' W 090°11'311.1
2018-May-10 17:00N 38°39' W 090°11'1 2.1
2018-May-10 16:28N 38°40' W 090°11'2 4.9
2018-May-10 16:00N 38°38' W 090°11'1 2.8
2018-May-10 15:30N 38°36' W 090°11'5 4.4
2018-May-10 14:25N 38°33' W 090°15'1 1.4
2018-May-10 14:00N 38°32' W 090°15'0 1.0
2018-May-10 13:30N 38°32' W 090°15'0 0.3
2018-May-10 13:00N 38°31' W 090°16'0 0.4
2018-May-10 12:30N 38°31' W 090°16'0 0.2
2018-May-10 12:00N 38°31' W 090°16'1 2.2
2018-May-10 11:29N 38°32' W 090°15'0 0.1
2018-May-10 11:00N 38°32' W 090°15'0 0.0
2018-May-10 10:30N 38°32' W 090°15'1 1.6
2018-May-10 10:00N 38°32' W 090°15'0 0.0
2018-May-10 08:57N 38°32' W 090°15'0 0.1
2018-May-10 08:28N 38°32' W 090°15'0 0.1
2018-May-10 08:00N 38°32' W 090°15'1 1.0
2018-May-10 07:28N 38°31' W 090°16'1 0.8
2018-May-10 06:51N 38°32' W 090°15'0 0.1
2018-May-10 06:11N 38°32' W 090°15'0 0.0
2018-May-10 06:00N 38°32' W 090°15'1 1.0
2018-May-10 05:14N 38°32' W 090°15'0 0.1
2018-May-10 04:45N 38°32' W 090°15'0 0.0
2018-May-09 08:23N 38°32' W 090°15'0 0.0
2018-May-09 07:58N 38°32' W 090°15'0 0.0
2018-May-09 07:30N 38°32' W 090°15'0 0.0
2018-May-09 07:00N 38°32' W 090°15'0 0.0
2018-May-09 06:29N 38°32' W 090°15'0 0.0
2018-May-09 05:28N 38°32' W 090°15'0 0.0
2018-May-09 04:53N 38°32' W 090°15'0 0.0
2018-May-09 04:09N 38°32' W 090°15'0 0.0
2018-May-09 03:59N 38°32' W 090°15'0 0.0
2018-May-09 03:27N 38°32' W 090°15'0 0.0
2018-May-09 02:55N 38°32' W 090°15'0 0.0
2018-May-09 02:21N 38°32' W 090°15'0 0.0
2018-May-09 01:59N 38°32' W 090°15'0 0.0
2018-May-09 00:26N 38°32' W 090°15'0 0.0
2018-May-08 23:56N 38°32' W 090°15'0 0.0
2018-May-08 23:30N 38°32' W 090°15'0 0.0
2018-May-08 22:56N 38°32' W 090°15'5 2.8
2018-May-08 21:17N 38°36' W 090°11'3 9.6
2018-May-08 21:00N 38°39' W 090°11'0 0.2
2018-May-08 20:29N 38°39' W 090°11'3 4.5
2018-May-08 19:55N 38°36' W 090°11'4 5.8
2018-May-08 19:13N 38°33' W 090°14'1 2.9
2018-May-08 18:59N 38°32' W 090°15'1 0.6
2018-May-08 17:29N 38°32' W 090°15'1 0.6
2018-May-08 16:28N 38°32' W 090°15'5 3.0
2018-May-08 14:58N 38°36' W 090°12'3 4.9
2018-May-08 14:21N 38°39' W 090°11'0 0.2
2018-May-08 13:47N 38°39' W 090°11'1 4.5
2018-May-08 13:30N 38°37' W 090°11'3 4.6
2018-May-08 12:57N 38°35' W 090°12'2 4.3
2018-May-08 12:22N 38°33' W 090°14'0 0.6
2018-May-08 11:59N 38°33' W 090°14'1 2.0
2018-May-08 11:30N 38°32' W 090°15'0 0.2
2018-May-08 10:49N 38°32' W 090°15'0 0.0
2018-May-08 10:27N 38°32' W 090°15'1 2.0
2018-May-08 09:56N 38°33' W 090°14'0 0.0
2018-May-08 09:26N 38°33' W 090°14'1 1.3
2018-May-08 09:00N 38°33' W 090°15'0 0.2
2018-May-08 08:28N 38°33' W 090°15'0 0.4
2018-May-08 08:00N 38°33' W 090°15'1 2.3
2018-May-08 07:30N 38°32' W 090°15'0 0.1
2018-May-08 06:53N 38°32' W 090°15'0 0.5
2018-May-08 06:29N 38°32' W 090°16'0 0.1
2018-May-08 05:55N 38°32' W 090°15'1 1.5
2018-May-08 04:56N 38°33' W 090°15'1 1.7
2018-May-08 04:30N 38°32' W 090°15'1 1.9
2018-May-08 03:59N 38°33' W 090°14'0 0.2
2018-May-08 03:30N 38°33' W 090°14'0 0.2
2018-May-08 02:55N 38°33' W 090°14'1 0.5
2018-May-08 01:28N 38°33' W 090°15'0 0.5
2018-May-08 00:37N 38°33' W 090°15'0 0.1
2018-May-07 21:28N 38°33' W 090°15'1 0.3
2018-May-07 19:37N 38°33' W 090°15'0 0.1
2018-May-07 19:10N 38°33' W 090°14'0 0.0
2018-May-07 18:47N 38°33' W 090°14'1 0.3
2018-May-07 16:00N 38°33' W 090°15'0 0.2
2018-May-07 13:40N 38°33' W 090°15'0 0.1
2018-May-07 13:27N 38°33' W 090°15'0 0.7
2018-May-07 12:57N 38°32' W 090°15'0 0.6
2018-May-07 12:28N 38°33' W 090°15'0 0.1
2018-May-07 12:00N 38°33' W 090°15'0 0.3
2018-May-07 10:44N 38°32' W 090°15'0 0.2
2018-May-07 10:28N 38°32' W 090°15'1 1.2
2018-May-07 10:00N 38°32' W 090°15'0 0.0
2018-May-07 09:27N 38°32' W 090°15'0 0.0
2018-May-07 09:00N 38°32' W 090°15'0 0.0
2018-May-07 08:29N 38°32' W 090°15'0 0.0
2018-May-07 07:58N 38°32' W 090°15'0 0.0
2018-May-07 07:29N 38°32' W 090°15'0 0.3
2018-May-07 06:54N 38°32' W 090°16'0 0.3
2018-May-07 06:25N 38°32' W 090°16'0 0.3
2018-May-07 04:50N 38°31' W 090°16'0 0.2
2018-May-07 04:14N 38°31' W 090°16'0 0.0
2018-May-07 03:58N 38°31' W 090°16'0 0.2
2018-May-07 03:29N 38°31' W 090°16'0 0.2
2018-May-07 02:59N 38°31' W 090°16'0 0.1
2018-May-07 02:22N 38°31' W 090°16'0 0.9
2018-May-07 01:53N 38°32' W 090°15'0 0.1
2018-May-07 01:30N 38°32' W 090°15'0 0.0
2018-May-07 00:50N 38°32' W 090°15'1 1.0
2018-May-07 00:13N 38°31' W 090°16'0 0.0
2018-May-06 23:59N 38°31' W 090°16'0 0.0
2018-May-06 14:44N 38°32' W 090°15'1 5.4
2018-May-06 14:31N 38°33' W 090°15'0 0.3
2018-May-06 13:54N 38°33' W 090°15'0 0.2
2018-May-06 13:29N 38°33' W 090°15'0 0.2
2018-May-06 12:44N 38°33' W 090°15'1 2.9
2018-May-06 12:30N 38°32' W 090°15'1 1.2
2018-May-06 12:00N 38°33' W 090°15'0 0.8
2018-May-06 11:30N 38°32' W 090°15'0 0.0
2018-May-06 11:00N 38°32' W 090°15'0 0.0
2018-May-06 10:30N 38°32' W 090°15'0 0.9
2018-May-06 10:00N 38°33' W 090°15'0 0.3
2018-May-06 09:28N 38°33' W 090°15'0 0.3
2018-May-06 09:00N 38°33' W 090°15'1 2.5
2018-May-06 08:30N 38°32' W 090°15'0 0.6
2018-May-06 07:51N 38°31' W 090°16'1 3.1
2018-May-06 07:28N 38°32' W 090°15'0 0.1
2018-May-06 06:29N 38°32' W 090°15'1 2.0
2018-May-06 05:51N 38°31' W 090°16'0 0.0
2018-May-06 05:17N 38°31' W 090°16'0 0.0
2018-May-06 04:59N 38°31' W 090°16'0 0.2
2018-May-06 03:21N 38°31' W 090°16'0 0.5
2018-May-06 02:51N 38°32' W 090°16'1 0.8
2018-May-06 02:07N 38°32' W 090°15'0 0.7
2018-May-06 01:52N 38°32' W 090°15'0 0.2
2018-May-05 23:47N 38°32' W 090°15'0 0.2
2018-May-05 23:30N 38°32' W 090°15'0 0.0
2018-May-05 22:54N 38°32' W 090°15'0 0.2
2018-May-05 20:53N 38°33' W 090°15'0 0.1
2018-May-05 20:28N 38°33' W 090°15'0 0.0
2018-May-05 19:31N 38°33' W 090°15'0 0.0
2018-May-05 19:22N 38°33' W 090°15'0 0.2
2018-May-05 18:45N 38°33' W 090°15'0 0.1
2018-May-05 18:02N 38°33' W 090°15'0 2.2
2018-May-05 17:59N 38°33' W 090°15'0 0.2
2018-May-05 17:29N 38°33' W 090°15'  

Dump ship's entire track history